Sam, Kazakhstan
Current Conditions -  °F | °C
As of 7:30 AM on Thursday 23 Oct 2014 (Local Time) from UATG Reporting Station
Haze Haze  
Wind Chill: 42°   Ceiling: 1500
Heat Index: 45°   Visibility: 3mi
Dew Point: 43°   Wind: 4mph
Humidity: 93%   Direction: 10°N
Pressure: 29.97"   Gusts: NA
Location:  45.4°N, 56.12°E
Report Text: UATG 230330Z 01002MPS 5000 BR BKN015 07/06 Q1015 R32/19//67NOSIG RMK QFE763/1017
Loading
Personal Weather Stations






























Interactive Weather Map
Tropical Storm Tracking
New forecast layout! Learn more

10-Day Weather Forecast

Advertisements
Track Severe Weather on mobile